sensor_id;sensor_type;location;lat;lon;timestamp;P1;durP1;ratioP1;P2;durP2;ratioP2
1779;SDS011;10019;46.670;14.260;2022-09-09T00:00:46;2.13;;;1.93;;
1779;SDS011;10019;46.670;14.260;2022-09-09T00:03:20;2.20;;;2.00;;
1779;SDS011;10019;46.670;14.260;2022-09-09T00:06:00;2.00;;;1.80;;
1779;SDS011;10019;46.670;14.260;2022-09-09T00:08:40;3.07;;;1.83;;
1779;SDS011;10019;46.670;14.260;2022-09-09T00:11:18;2.23;;;1.83;;
1779;SDS011;10019;46.670;14.260;2022-09-09T00:13:55;3.00;;;2.00;;
1779;SDS011;10019;46.670;14.260;2022-09-09T00:16:29;2.70;;;2.10;;
1779;SDS011;10019;46.670;14.260;2022-09-09T00:19:07;2.17;;;1.97;;
1779;SDS011;10019;46.670;14.260;2022-09-09T00:21:46;5.43;;;2.23;;
1779;SDS011;10019;46.670;14.260;2022-09-09T00:24:23;2.53;;;2.20;;
1779;SDS011;10019;46.670;14.260;2022-09-09T00:26:59;3.33;;;1.93;;
1779;SDS011;10019;46.670;14.260;2022-09-09T00:29:34;3.63;;;2.30;;
1779;SDS011;10019;46.670;14.260;2022-09-09T00:32:11;3.03;;;2.07;;
1779;SDS011;10019;46.670;14.260;2022-09-09T00:34:47;2.50;;;2.30;;
1779;SDS011;10019;46.670;14.260;2022-09-09T00:37:21;4.97;;;2.10;;
1779;SDS011;10019;46.670;14.260;2022-09-09T00:39:57;2.97;;;2.00;;
1779;SDS011;10019;46.670;14.260;2022-09-09T00:42:32;3.50;;;2.03;;
1779;SDS011;10019;46.670;14.260;2022-09-09T00:45:12;7.13;;;2.13;;
1779;SDS011;10019;46.670;14.260;2022-09-09T00:47:51;3.50;;;2.07;;
1779;SDS011;10019;46.670;14.260;2022-09-09T00:50:31;6.50;;;2.43;;
1779;SDS011;10019;46.670;14.260;2022-09-09T00:53:14;3.60;;;2.00;;
1779;SDS011;10019;46.670;14.260;2022-09-09T00:55:53;4.10;;;2.43;;
1779;SDS011;10019;46.670;14.260;2022-09-09T00:58:30;4.00;;;2.13;;
1779;SDS011;10019;46.670;14.260;2022-09-09T01:01:02;5.13;;;2.27;;
1779;SDS011;10019;46.670;14.260;2022-09-09T01:03:38;3.50;;;2.00;;
1779;SDS011;10019;46.670;14.260;2022-09-09T01:06:16;2.53;;;2.30;;
1779;SDS011;10019;46.670;14.260;2022-09-09T01:09:02;3.60;;;1.93;;
1779;SDS011;10019;46.670;14.260;2022-09-09T01:11:43;5.10;;;2.37;;
1779;SDS011;10019;46.670;14.260;2022-09-09T01:14:24;4.03;;;1.93;;
1779;SDS011;10019;46.670;14.260;2022-09-09T01:17:03;2.53;;;2.20;;
1779;SDS011;10019;46.670;14.260;2022-09-09T01:19:43;3.60;;;2.23;;
1779;SDS011;10019;46.670;14.260;2022-09-09T01:22:22;3.60;;;2.30;;
1779;SDS011;10019;46.670;14.260;2022-09-09T01:27:59;7.03;;;2.93;;
1779;SDS011;10019;46.670;14.260;2022-09-09T01:30:33;3.53;;;2.50;;
1779;SDS011;10019;46.670;14.260;2022-09-09T01:33:07;4.63;;;2.50;;
1779;SDS011;10019;46.670;14.260;2022-09-09T01:35:43;2.40;;;2.13;;
1779;SDS011;10019;46.670;14.260;2022-09-09T01:38:18;2.40;;;2.10;;
1779;SDS011;10019;46.670;14.260;2022-09-09T01:40:50;2.93;;;2.37;;
1779;SDS011;10019;46.670;14.260;2022-09-09T01:43:24;3.63;;;2.10;;
1779;SDS011;10019;46.670;14.260;2022-09-09T01:45:58;7.27;;;2.30;;
1779;SDS011;10019;46.670;14.260;2022-09-09T01:48:31;7.13;;;2.50;;
1779;SDS011;10019;46.670;14.260;2022-09-09T01:51:04;5.73;;;2.43;;
1779;SDS011;10019;46.670;14.260;2022-09-09T01:53:36;2.43;;;2.23;;
1779;SDS011;10019;46.670;14.260;2022-09-09T01:56:11;10.23;;;2.20;;
1779;SDS011;10019;46.670;14.260;2022-09-09T01:58:57;3.50;;;2.30;;
1779;SDS011;10019;46.670;14.260;2022-09-09T02:01:38;3.63;;;2.13;;
1779;SDS011;10019;46.670;14.260;2022-09-09T02:04:22;2.73;;;2.50;;
1779;SDS011;10019;46.670;14.260;2022-09-09T02:06:59;3.13;;;2.60;;
1779;SDS011;10019;46.670;14.260;2022-09-09T02:09:31;3.23;;;2.20;;
1779;SDS011;10019;46.670;14.260;2022-09-09T02:12:05;2.90;;;2.30;;
1779;SDS011;10019;46.670;14.260;2022-09-09T02:14:42;2.43;;;2.23;;
1779;SDS011;10019;46.670;14.260;2022-09-09T02:17:20;2.60;;;2.30;;
1779;SDS011;10019;46.670;14.260;2022-09-09T02:19:57;2.37;;;1.90;;
1779;SDS011;10019;46.670;14.260;2022-09-09T02:22:31;3.00;;;2.30;;
1779;SDS011;10019;46.670;14.260;2022-09-09T02:25:06;3.17;;;2.40;;
1779;SDS011;10019;46.670;14.260;2022-09-09T02:27:38;3.90;;;2.70;;
1779;SDS011;10019;46.670;14.260;2022-09-09T02:30:13;2.33;;;2.13;;
1779;SDS011;10019;46.670;14.260;2022-09-09T02:32:45;4.97;;;2.67;;
1779;SDS011;10019;46.670;14.260;2022-09-09T02:35:19;3.50;;;2.70;;
1779;SDS011;10019;46.670;14.260;2022-09-09T02:37:53;6.60;;;2.93;;
1779;SDS011;10019;46.670;14.260;2022-09-09T02:40:26;5.47;;;3.70;;
1779;SDS011;10019;46.670;14.260;2022-09-09T02:42:58;4.57;;;3.33;;
1779;SDS011;10019;46.670;14.260;2022-09-09T02:45:34;3.87;;;3.43;;
1779;SDS011;10019;46.670;14.260;2022-09-09T02:48:14;13.20;;;3.40;;
1779;SDS011;10019;46.670;14.260;2022-09-09T02:50:50;3.20;;;2.73;;
1779;SDS011;10019;46.670;14.260;2022-09-09T02:53:28;4.60;;;2.03;;
1779;SDS011;10019;46.670;14.260;2022-09-09T02:56:05;4.90;;;2.30;;
1779;SDS011;10019;46.670;14.260;2022-09-09T02:58:40;4.77;;;2.37;;
1779;SDS011;10019;46.670;14.260;2022-09-09T03:01:13;8.67;;;2.10;;
1779;SDS011;10019;46.670;14.260;2022-09-09T03:03:45;3.80;;;2.23;;
1779;SDS011;10019;46.670;14.260;2022-09-09T03:06:18;2.40;;;2.17;;
1779;SDS011;10019;46.670;14.260;2022-09-09T03:08:49;2.93;;;2.10;;
1779;SDS011;10019;46.670;14.260;2022-09-09T03:17:00;2.90;;;1.93;;
1779;SDS011;10019;46.670;14.260;2022-09-09T03:19:32;6.43;;;2.00;;
1779;SDS011;10019;46.670;14.260;2022-09-09T03:25:32;6.20;;;2.33;;
1779;SDS011;10019;46.670;14.260;2022-09-09T03:28:05;5.27;;;2.10;;
1779;SDS011;10019;46.670;14.260;2022-09-09T03:30:37;2.67;;;2.20;;
1779;SDS011;10019;46.670;14.260;2022-09-09T03:33:10;2.33;;;2.10;;
1779;SDS011;10019;46.670;14.260;2022-09-09T03:35:44;4.87;;;2.30;;
1779;SDS011;10019;46.670;14.260;2022-09-09T03:38:18;2.40;;;2.10;;
1779;SDS011;10019;46.670;14.260;2022-09-09T03:40:50;5.43;;;2.17;;
1779;SDS011;10019;46.670;14.260;2022-09-09T03:43:23;4.17;;;2.73;;
1779;SDS011;10019;46.670;14.260;2022-09-09T03:45:56;3.70;;;2.10;;
1779;SDS011;10019;46.670;14.260;2022-09-09T03:48:29;4.40;;;2.00;;
1779;SDS011;10019;46.670;14.260;2022-09-09T03:51:01;4.23;;;2.57;;
1779;SDS011;10019;46.670;14.260;2022-09-09T03:53:33;6.43;;;2.43;;
1779;SDS011;10019;46.670;14.260;2022-09-09T03:56:05;4.00;;;2.30;;
1779;SDS011;10019;46.670;14.260;2022-09-09T03:58:37;4.67;;;2.40;;
1779;SDS011;10019;46.670;14.260;2022-09-09T04:01:10;3.83;;;2.20;;
1779;SDS011;10019;46.670;14.260;2022-09-09T04:03:49;2.80;;;2.40;;
1779;SDS011;10019;46.670;14.260;2022-09-09T04:06:22;2.63;;;2.43;;
1779;SDS011;10019;46.670;14.260;2022-09-09T04:08:54;4.37;;;3.00;;
1779;SDS011;10019;46.670;14.260;2022-09-09T04:11:26;4.73;;;2.00;;
1779;SDS011;10019;46.670;14.260;2022-09-09T04:13:57;5.80;;;2.27;;
1779;SDS011;10019;46.670;14.260;2022-09-09T04:16:29;3.03;;;2.07;;
1779;SDS011;10019;46.670;14.260;2022-09-09T04:19:02;2.80;;;2.47;;
1779;SDS011;10019;46.670;14.260;2022-09-09T04:21:34;3.57;;;2.13;;
1779;SDS011;10019;46.670;14.260;2022-09-09T04:24:06;8.73;;;2.50;;
1779;SDS011;10019;46.670;14.260;2022-09-09T04:26:38;13.00;;;2.70;;
1779;SDS011;10019;46.670;14.260;2022-09-09T04:29:10;5.50;;;2.00;;
1779;SDS011;10019;46.670;14.260;2022-09-09T04:31:41;4.40;;;2.50;;
1779;SDS011;10019;46.670;14.260;2022-09-09T04:34:15;4.97;;;2.30;;
1779;SDS011;10019;46.670;14.260;2022-09-09T04:36:47;3.53;;;3.00;;
1779;SDS011;10019;46.670;14.260;2022-09-09T04:39:19;4.63;;;2.60;;
1779;SDS011;10019;46.670;14.260;2022-09-09T04:41:51;2.43;;;2.03;;
1779;SDS011;10019;46.670;14.260;2022-09-09T04:44:23;8.43;;;3.00;;
1779;SDS011;10019;46.670;14.260;2022-09-09T04:46:54;5.93;;;2.50;;
1779;SDS011;10019;46.670;14.260;2022-09-09T04:49:27;5.70;;;2.70;;
1779;SDS011;10019;46.670;14.260;2022-09-09T04:52:01;5.23;;;2.37;;
1779;SDS011;10019;46.670;14.260;2022-09-09T04:54:33;4.53;;;2.40;;
1779;SDS011;10019;46.670;14.260;2022-09-09T04:57:05;4.30;;;2.40;;
1779;SDS011;10019;46.670;14.260;2022-09-09T04:59:37;2.87;;;2.40;;
1779;SDS011;10019;46.670;14.260;2022-09-09T05:02:09;8.07;;;2.40;;
1779;SDS011;10019;46.670;14.260;2022-09-09T05:04:42;4.87;;;2.47;;
1779;SDS011;10019;46.670;14.260;2022-09-09T05:07:14;4.90;;;3.00;;
1779;SDS011;10019;46.670;14.260;2022-09-09T05:09:45;4.83;;;2.60;;
1779;SDS011;10019;46.670;14.260;2022-09-09T05:12:19;6.00;;;3.17;;
1779;SDS011;10019;46.670;14.260;2022-09-09T05:14:51;3.50;;;3.20;;
1779;SDS011;10019;46.670;14.260;2022-09-09T05:17:23;6.67;;;3.10;;
1779;SDS011;10019;46.670;14.260;2022-09-09T05:19:56;4.63;;;2.63;;
1779;SDS011;10019;46.670;14.260;2022-09-09T05:22:28;4.83;;;3.20;;
1779;SDS011;10019;46.670;14.260;2022-09-09T05:25:00;4.40;;;3.20;;
1779;SDS011;10019;46.670;14.260;2022-09-09T05:27:33;4.57;;;3.10;;
1779;SDS011;10019;46.670;14.260;2022-09-09T05:30:05;4.80;;;2.80;;
1779;SDS011;10019;46.670;14.260;2022-09-09T05:32:38;4.30;;;3.63;;
1779;SDS011;10019;46.670;14.260;2022-09-09T05:35:11;5.37;;;3.80;;
1779;SDS011;10019;46.670;14.260;2022-09-09T05:37:43;14.57;;;3.50;;
1779;SDS011;10019;46.670;14.260;2022-09-09T05:40:16;14.77;;;4.07;;
1779;SDS011;10019;46.670;14.260;2022-09-09T05:42:48;7.57;;;4.90;;
1779;SDS011;10019;46.670;14.260;2022-09-09T05:45:19;8.00;;;7.20;;
1779;SDS011;10019;46.670;14.260;2022-09-09T05:47:51;4.47;;;4.07;;
1779;SDS011;10019;46.670;14.260;2022-09-09T05:50:25;2.97;;;2.67;;
1779;SDS011;10019;46.670;14.260;2022-09-09T05:52:57;5.10;;;2.90;;
1779;SDS011;10019;46.670;14.260;2022-09-09T05:55:29;3.40;;;3.07;;
1779;SDS011;10019;46.670;14.260;2022-09-09T05:58:01;7.27;;;2.57;;
1779;SDS011;10019;46.670;14.260;2022-09-09T06:00:33;3.40;;;2.60;;
1779;SDS011;10019;46.670;14.260;2022-09-09T06:03:04;4.30;;;2.83;;
1779;SDS011;10019;46.670;14.260;2022-09-09T06:05:38;3.10;;;2.80;;
1779;SDS011;10019;46.670;14.260;2022-09-09T06:08:09;2.43;;;2.23;;
1779;SDS011;10019;46.670;14.260;2022-09-09T06:10:41;4.50;;;2.60;;
1779;SDS011;10019;46.670;14.260;2022-09-09T06:13:13;3.37;;;2.50;;
1779;SDS011;10019;46.670;14.260;2022-09-09T06:15:49;2.90;;;2.70;;
1779;SDS011;10019;46.670;14.260;2022-09-09T06:18:21;3.17;;;2.00;;
1779;SDS011;10019;46.670;14.260;2022-09-09T06:20:55;4.03;;;2.43;;
1779;SDS011;10019;46.670;14.260;2022-09-09T06:23:28;3.40;;;2.43;;
1779;SDS011;10019;46.670;14.260;2022-09-09T06:26:00;3.00;;;2.10;;
1779;SDS011;10019;46.670;14.260;2022-09-09T06:28:36;2.90;;;2.43;;
1779;SDS011;10019;46.670;14.260;2022-09-09T06:31:09;4.53;;;1.97;;
1779;SDS011;10019;46.670;14.260;2022-09-09T06:33:41;2.73;;;2.03;;
1779;SDS011;10019;46.670;14.260;2022-09-09T06:36:16;9.63;;;2.50;;
1779;SDS011;10019;46.670;14.260;2022-09-09T06:38:49;4.60;;;2.37;;
1779;SDS011;10019;46.670;14.260;2022-09-09T06:41:22;2.70;;;2.23;;
1779;SDS011;10019;46.670;14.260;2022-09-09T06:43:56;3.00;;;2.40;;
1779;SDS011;10019;46.670;14.260;2022-09-09T06:46:28;2.90;;;2.57;;
1779;SDS011;10019;46.670;14.260;2022-09-09T06:49:02;3.63;;;2.27;;
1779;SDS011;10019;46.670;14.260;2022-09-09T06:51:35;3.07;;;2.20;;
1779;SDS011;10019;46.670;14.260;2022-09-09T06:54:13;3.50;;;2.40;;
1779;SDS011;10019;46.670;14.260;2022-09-09T06:56:45;2.80;;;2.40;;
1779;SDS011;10019;46.670;14.260;2022-09-09T06:59:16;2.93;;;2.30;;
1779;SDS011;10019;46.670;14.260;2022-09-09T07:01:48;8.00;;;2.23;;
1779;SDS011;10019;46.670;14.260;2022-09-09T07:04:22;3.03;;;1.90;;
1779;SDS011;10019;46.670;14.260;2022-09-09T07:06:55;2.17;;;1.97;;
1779;SDS011;10019;46.670;14.260;2022-09-09T07:09:27;4.10;;;2.03;;
1779;SDS011;10019;46.670;14.260;2022-09-09T07:11:59;7.30;;;2.20;;
1779;SDS011;10019;46.670;14.260;2022-09-09T07:17:04;2.23;;;1.97;;
1779;SDS011;10019;46.670;14.260;2022-09-09T07:19:35;2.83;;;2.10;;
1779;SDS011;10019;46.670;14.260;2022-09-09T07:22:08;6.70;;;2.30;;
1779;SDS011;10019;46.670;14.260;2022-09-09T07:24:40;3.20;;;2.30;;
1779;SDS011;10019;46.670;14.260;2022-09-09T07:27:15;2.77;;;2.17;;
1779;SDS011;10019;46.670;14.260;2022-09-09T07:29:46;3.43;;;2.40;;
1779;SDS011;10019;46.670;14.260;2022-09-09T07:32:18;7.13;;;2.10;;
1779;SDS011;10019;46.670;14.260;2022-09-09T07:34:50;4.43;;;2.50;;
1779;SDS011;10019;46.670;14.260;2022-09-09T07:37:24;3.30;;;2.30;;
1779;SDS011;10019;46.670;14.260;2022-09-09T07:39:56;3.43;;;3.13;;
1779;SDS011;10019;46.670;14.260;2022-09-09T07:42:28;2.60;;;2.40;;
1779;SDS011;10019;46.670;14.260;2022-09-09T07:45:00;3.60;;;2.70;;
1779;SDS011;10019;46.670;14.260;2022-09-09T07:47:32;2.60;;;2.40;;
1779;SDS011;10019;46.670;14.260;2022-09-09T07:50:05;2.90;;;2.60;;
1779;SDS011;10019;46.670;14.260;2022-09-09T07:52:40;5.30;;;2.60;;
1779;SDS011;10019;46.670;14.260;2022-09-09T07:55:12;6.50;;;2.83;;
1779;SDS011;10019;46.670;14.260;2022-09-09T07:57:43;4.10;;;2.70;;
1779;SDS011;10019;46.670;14.260;2022-09-09T08:00:15;6.60;;;3.00;;
1779;SDS011;10019;46.670;14.260;2022-09-09T08:02:47;3.57;;;2.57;;
1779;SDS011;10019;46.670;14.260;2022-09-09T08:05:19;3.83;;;2.50;;
1779;SDS011;10019;46.670;14.260;2022-09-09T08:07:53;2.50;;;2.30;;
1779;SDS011;10019;46.670;14.260;2022-09-09T08:10:25;3.60;;;2.60;;
1779;SDS011;10019;46.670;14.260;2022-09-09T08:12:57;5.93;;;2.50;;
1779;SDS011;10019;46.670;14.260;2022-09-09T08:15:29;5.07;;;2.67;;
1779;SDS011;10019;46.670;14.260;2022-09-09T08:18:02;2.87;;;2.57;;
1779;SDS011;10019;46.670;14.260;2022-09-09T08:20:36;3.00;;;2.57;;
1779;SDS011;10019;46.670;14.260;2022-09-09T08:23:09;3.13;;;2.50;;
1779;SDS011;10019;46.670;14.260;2022-09-09T08:25:41;5.20;;;2.47;;
1779;SDS011;10019;46.670;14.260;2022-09-09T08:28:13;2.83;;;2.47;;
1779;SDS011;10019;46.670;14.260;2022-09-09T08:30:44;3.03;;;2.40;;
1779;SDS011;10019;46.670;14.260;2022-09-09T08:33:18;2.73;;;2.53;;
1779;SDS011;10019;46.670;14.260;2022-09-09T08:35:50;5.00;;;2.23;;
1779;SDS011;10019;46.670;14.260;2022-09-09T08:38:24;5.50;;;2.60;;
1779;SDS011;10019;46.670;14.260;2022-09-09T08:40:57;4.23;;;2.60;;
1779;SDS011;10019;46.670;14.260;2022-09-09T08:43:32;2.80;;;2.50;;
1779;SDS011;10019;46.670;14.260;2022-09-09T08:46:06;4.40;;;2.90;;
1779;SDS011;10019;46.670;14.260;2022-09-09T08:48:47;4.07;;;3.07;;
1779;SDS011;10019;46.670;14.260;2022-09-09T08:51:24;3.73;;;2.60;;
1779;SDS011;10019;46.670;14.260;2022-09-09T08:53:59;4.03;;;2.70;;
1779;SDS011;10019;46.670;14.260;2022-09-09T08:56:33;2.93;;;2.30;;
1779;SDS011;10019;46.670;14.260;2022-09-09T08:59:07;4.37;;;2.90;;
1779;SDS011;10019;46.670;14.260;2022-09-09T09:01:43;5.27;;;3.57;;
1779;SDS011;10019;46.670;14.260;2022-09-09T09:04:29;3.00;;;2.67;;
1779;SDS011;10019;46.670;14.260;2022-09-09T09:07:08;2.57;;;2.37;;
1779;SDS011;10019;46.670;14.260;2022-09-09T09:09:51;2.50;;;2.30;;
1779;SDS011;10019;46.670;14.260;2022-09-09T09:12:30;3.60;;;2.37;;
1779;SDS011;10019;46.670;14.260;2022-09-09T09:15:05;5.33;;;2.60;;
1779;SDS011;10019;46.670;14.260;2022-09-09T09:17:43;3.97;;;2.60;;
1779;SDS011;10019;46.670;14.260;2022-09-09T09:20:15;4.37;;;3.00;;
1779;SDS011;10019;46.670;14.260;2022-09-09T09:22:48;2.77;;;2.57;;
1779;SDS011;10019;46.670;14.260;2022-09-09T09:25:22;4.17;;;2.43;;
1779;SDS011;10019;46.670;14.260;2022-09-09T09:27:57;3.60;;;2.70;;
1779;SDS011;10019;46.670;14.260;2022-09-09T09:30:34;3.53;;;2.67;;
1779;SDS011;10019;46.670;14.260;2022-09-09T09:33:10;2.90;;;2.53;;
1779;SDS011;10019;46.670;14.260;2022-09-09T09:35:45;6.63;;;2.20;;
1779;SDS011;10019;46.670;14.260;2022-09-09T09:38:18;4.20;;;2.57;;
1779;SDS011;10019;46.670;14.260;2022-09-09T09:40:54;3.70;;;2.60;;
1779;SDS011;10019;46.670;14.260;2022-09-09T09:43:28;5.13;;;3.10;;
1779;SDS011;10019;46.670;14.260;2022-09-09T09:46:03;2.63;;;2.37;;
1779;SDS011;10019;46.670;14.260;2022-09-09T09:48:35;3.23;;;2.57;;
1779;SDS011;10019;46.670;14.260;2022-09-09T09:51:08;3.30;;;3.00;;
1779;SDS011;10019;46.670;14.260;2022-09-09T09:53:43;4.13;;;3.30;;
1779;SDS011;10019;46.670;14.260;2022-09-09T09:56:16;5.87;;;2.93;;
1779;SDS011;10019;46.670;14.260;2022-09-09T09:58:49;4.50;;;2.90;;
1779;SDS011;10019;46.670;14.260;2022-09-09T10:01:24;2.93;;;2.73;;
1779;SDS011;10019;46.670;14.260;2022-09-09T10:03:58;2.93;;;2.73;;
1779;SDS011;10019;46.670;14.260;2022-09-09T10:06:32;3.60;;;2.70;;
1779;SDS011;10019;46.670;14.260;2022-09-09T10:09:17;3.60;;;2.40;;
1779;SDS011;10019;46.670;14.260;2022-09-09T10:11:57;3.30;;;2.20;;
1779;SDS011;10019;46.670;14.260;2022-09-09T10:14:35;2.53;;;2.33;;
1779;SDS011;10019;46.670;14.260;2022-09-09T10:17:16;2.57;;;2.23;;
1779;SDS011;10019;46.670;14.260;2022-09-09T10:19:55;3.37;;;2.20;;
1779;SDS011;10019;46.670;14.260;2022-09-09T10:22:39;3.53;;;2.30;;
1779;SDS011;10019;46.670;14.260;2022-09-09T10:25:27;3.07;;;2.40;;
1779;SDS011;10019;46.670;14.260;2022-09-09T10:28:18;2.83;;;2.30;;
1779;SDS011;10019;46.670;14.260;2022-09-09T10:31:02;2.40;;;2.00;;
1779;SDS011;10019;46.670;14.260;2022-09-09T10:33:42;2.23;;;2.03;;
1779;SDS011;10019;46.670;14.260;2022-09-09T10:36:20;2.80;;;2.50;;
1779;SDS011;10019;46.670;14.260;2022-09-09T10:38:53;2.57;;;2.13;;
1779;SDS011;10019;46.670;14.260;2022-09-09T10:41:34;3.30;;;2.10;;
1779;SDS011;10019;46.670;14.260;2022-09-09T10:44:26;2.43;;;2.20;;
1779;SDS011;10019;46.670;14.260;2022-09-09T10:47:18;2.57;;;2.00;;
1779;SDS011;10019;46.670;14.260;2022-09-09T10:50:16;2.60;;;2.07;;
1779;SDS011;10019;46.670;14.260;2022-09-09T10:52:58;2.60;;;2.40;;
1779;SDS011;10019;46.670;14.260;2022-09-09T10:55:33;3.03;;;2.20;;
1779;SDS011;10019;46.670;14.260;2022-09-09T10:58:10;2.13;;;1.93;;
1779;SDS011;10019;46.670;14.260;2022-09-09T11:00:47;3.60;;;2.40;;
1779;SDS011;10019;46.670;14.260;2022-09-09T11:03:23;4.53;;;2.40;;
1779;SDS011;10019;46.670;14.260;2022-09-09T11:05:57;6.33;;;2.50;;
1779;SDS011;10019;46.670;14.260;2022-09-09T11:08:31;2.60;;;2.40;;
1779;SDS011;10019;46.670;14.260;2022-09-09T11:11:06;3.03;;;2.00;;
1779;SDS011;10019;46.670;14.260;2022-09-09T11:13:44;3.70;;;2.40;;
1779;SDS011;10019;46.670;14.260;2022-09-09T11:16:22;2.87;;;2.30;;
1779;SDS011;10019;46.670;14.260;2022-09-09T11:18:58;2.87;;;2.67;;
1779;SDS011;10019;46.670;14.260;2022-09-09T11:21:34;3.80;;;2.83;;
1779;SDS011;10019;46.670;14.260;2022-09-09T11:24:11;4.10;;;2.30;;
1779;SDS011;10019;46.670;14.260;2022-09-09T11:26:47;2.50;;;2.30;;
1779;SDS011;10019;46.670;14.260;2022-09-09T11:32:38;2.47;;;2.27;;
1779;SDS011;10019;46.670;14.260;2022-09-09T11:35:23;2.73;;;2.53;;
1779;SDS011;10019;46.670;14.260;2022-09-09T11:38:11;3.07;;;2.50;;
1779;SDS011;10019;46.670;14.260;2022-09-09T11:40:57;3.03;;;2.30;;
1779;SDS011;10019;46.670;14.260;2022-09-09T11:43:31;2.90;;;2.33;;
1779;SDS011;10019;46.670;14.260;2022-09-09T11:46:04;2.43;;;2.20;;
1779;SDS011;10019;46.670;14.260;2022-09-09T11:48:39;3.07;;;2.20;;
1779;SDS011;10019;46.670;14.260;2022-09-09T11:51:25;2.30;;;2.10;;
1779;SDS011;10019;46.670;14.260;2022-09-09T11:53:58;3.40;;;2.00;;
1779;SDS011;10019;46.670;14.260;2022-09-09T11:56:33;3.57;;;2.00;;
1779;SDS011;10019;46.670;14.260;2022-09-09T11:59:06;2.70;;;1.97;;
1779;SDS011;10019;46.670;14.260;2022-09-09T12:01:53;6.10;;;2.40;;
1779;SDS011;10019;46.670;14.260;2022-09-09T12:04:33;2.80;;;2.40;;
1779;SDS011;10019;46.670;14.260;2022-09-09T12:07:21;2.97;;;2.03;;
1779;SDS011;10019;46.670;14.260;2022-09-09T12:09:58;2.10;;;1.83;;
1779;SDS011;10019;46.670;14.260;2022-09-09T12:12:32;2.63;;;2.30;;
1779;SDS011;10019;46.670;14.260;2022-09-09T12:15:20;3.10;;;2.10;;
1779;SDS011;10019;46.670;14.260;2022-09-09T12:17:58;1.93;;;1.73;;
1779;SDS011;10019;46.670;14.260;2022-09-09T12:20:34;4.77;;;2.23;;
1779;SDS011;10019;46.670;14.260;2022-09-09T12:23:19;2.50;;;2.30;;
1779;SDS011;10019;46.670;14.260;2022-09-09T12:26:09;2.57;;;1.80;;
1779;SDS011;10019;46.670;14.260;2022-09-09T12:28:52;3.90;;;2.20;;
1779;SDS011;10019;46.670;14.260;2022-09-09T12:31:30;2.30;;;2.10;;
1779;SDS011;10019;46.670;14.260;2022-09-09T12:34:09;2.30;;;2.10;;
1779;SDS011;10019;46.670;14.260;2022-09-09T12:36:44;3.60;;;2.30;;
1779;SDS011;10019;46.670;14.260;2022-09-09T12:39:22;2.60;;;2.20;;
1779;SDS011;10019;46.670;14.260;2022-09-09T12:42:00;2.53;;;2.33;;
1779;SDS011;10019;46.670;14.260;2022-09-09T12:44:34;2.43;;;2.23;;
1779;SDS011;10019;46.670;14.260;2022-09-09T12:47:06;5.90;;;2.67;;
1779;SDS011;10019;46.670;14.260;2022-09-09T12:49:38;5.40;;;2.40;;
1779;SDS011;10019;46.670;14.260;2022-09-09T12:52:14;4.37;;;2.13;;
1779;SDS011;10019;46.670;14.260;2022-09-09T12:54:49;2.27;;;2.07;;
1779;SDS011;10019;46.670;14.260;2022-09-09T12:57:22;2.37;;;2.17;;
1779;SDS011;10019;46.670;14.260;2022-09-09T13:00:03;3.70;;;2.30;;
1779;SDS011;10019;46.670;14.260;2022-09-09T13:02:36;3.30;;;2.40;;
1779;SDS011;10019;46.670;14.260;2022-09-09T13:05:18;3.07;;;2.60;;
1779;SDS011;10019;46.670;14.260;2022-09-09T13:07:59;3.30;;;2.57;;
1779;SDS011;10019;46.670;14.260;2022-09-09T13:10:33;2.70;;;2.23;;
1779;SDS011;10019;46.670;14.260;2022-09-09T13:13:13;2.53;;;2.27;;
1779;SDS011;10019;46.670;14.260;2022-09-09T13:15:48;2.43;;;2.23;;
1779;SDS011;10019;46.670;14.260;2022-09-09T13:18:21;3.10;;;2.50;;
1779;SDS011;10019;46.670;14.260;2022-09-09T13:20:54;2.80;;;2.50;;
1779;SDS011;10019;46.670;14.260;2022-09-09T13:23:29;2.40;;;2.20;;
1779;SDS011;10019;46.670;14.260;2022-09-09T13:26:03;3.30;;;2.43;;
1779;SDS011;10019;46.670;14.260;2022-09-09T13:28:36;4.70;;;2.40;;
1779;SDS011;10019;46.670;14.260;2022-09-09T13:31:19;3.70;;;2.40;;
1779;SDS011;10019;46.670;14.260;2022-09-09T13:33:52;3.67;;;2.53;;
1779;SDS011;10019;46.670;14.260;2022-09-09T13:36:28;3.50;;;2.23;;
1779;SDS011;10019;46.670;14.260;2022-09-09T13:39:03;5.00;;;2.70;;
1779;SDS011;10019;46.670;14.260;2022-09-09T13:41:36;2.57;;;2.37;;
1779;SDS011;10019;46.670;14.260;2022-09-09T13:44:14;2.80;;;2.60;;
1779;SDS011;10019;46.670;14.260;2022-09-09T13:46:59;4.43;;;2.07;;
1779;SDS011;10019;46.670;14.260;2022-09-09T13:49:32;5.03;;;2.40;;
1779;SDS011;10019;46.670;14.260;2022-09-09T13:52:04;2.87;;;2.50;;
1779;SDS011;10019;46.670;14.260;2022-09-09T13:54:41;3.20;;;2.50;;
1779;SDS011;10019;46.670;14.260;2022-09-09T13:57:14;2.33;;;2.13;;
1779;SDS011;10019;46.670;14.260;2022-09-09T13:59:48;3.40;;;2.43;;
1779;SDS011;10019;46.670;14.260;2022-09-09T14:02:20;3.30;;;2.70;;
1779;SDS011;10019;46.670;14.260;2022-09-09T14:04:53;2.20;;;2.00;;
1779;SDS011;10019;46.670;14.260;2022-09-09T14:07:25;3.37;;;2.90;;
1779;SDS011;10019;46.670;14.260;2022-09-09T14:09:59;2.60;;;2.40;;
1779;SDS011;10019;46.670;14.260;2022-09-09T14:12:31;2.97;;;2.37;;
1779;SDS011;10019;46.670;14.260;2022-09-09T14:15:04;2.67;;;2.27;;
1779;SDS011;10019;46.670;14.260;2022-09-09T14:17:37;3.40;;;2.70;;
1779;SDS011;10019;46.670;14.260;2022-09-09T14:20:09;2.90;;;2.60;;
1779;SDS011;10019;46.670;14.260;2022-09-09T14:22:42;2.80;;;2.60;;
1779;SDS011;10019;46.670;14.260;2022-09-09T14:25:15;3.30;;;2.77;;
1779;SDS011;10019;46.670;14.260;2022-09-09T14:27:47;3.60;;;3.07;;
1779;SDS011;10019;46.670;14.260;2022-09-09T14:30:21;3.40;;;2.67;;
1779;SDS011;10019;46.670;14.260;2022-09-09T14:32:53;4.83;;;2.90;;
1779;SDS011;10019;46.670;14.260;2022-09-09T14:35:25;5.40;;;2.60;;
1779;SDS011;10019;46.670;14.260;2022-09-09T14:37:57;2.73;;;2.30;;
1779;SDS011;10019;46.670;14.260;2022-09-09T14:40:30;3.60;;;2.50;;
1779;SDS011;10019;46.670;14.260;2022-09-09T14:43:02;3.80;;;2.30;;
1779;SDS011;10019;46.670;14.260;2022-09-09T14:45:35;8.80;;;2.10;;
1779;SDS011;10019;46.670;14.260;2022-09-09T14:48:07;4.37;;;2.67;;
1779;SDS011;10019;46.670;14.260;2022-09-09T14:50:39;2.90;;;2.60;;
1779;SDS011;10019;46.670;14.260;2022-09-09T14:53:11;3.10;;;2.80;;
1779;SDS011;10019;46.670;14.260;2022-09-09T14:55:44;4.33;;;3.10;;
1779;SDS011;10019;46.670;14.260;2022-09-09T14:58:16;2.20;;;2.00;;
1779;SDS011;10019;46.670;14.260;2022-09-09T15:00:48;2.47;;;2.27;;
1779;SDS011;10019;46.670;14.260;2022-09-09T15:03:20;2.87;;;2.60;;
1779;SDS011;10019;46.670;14.260;2022-09-09T15:05:52;3.37;;;2.50;;
1779;SDS011;10019;46.670;14.260;2022-09-09T15:08:24;4.17;;;2.40;;
1779;SDS011;10019;46.670;14.260;2022-09-09T15:10:59;2.87;;;2.67;;
1779;SDS011;10019;46.670;14.260;2022-09-09T15:13:32;3.10;;;2.80;;
1779;SDS011;10019;46.670;14.260;2022-09-09T15:16:04;3.00;;;2.80;;
1779;SDS011;10019;46.670;14.260;2022-09-09T15:18:36;3.37;;;3.07;;
1779;SDS011;10019;46.670;14.260;2022-09-09T15:21:10;2.90;;;2.70;;
1779;SDS011;10019;46.670;14.260;2022-09-09T15:23:42;2.70;;;2.50;;
1779;SDS011;10019;46.670;14.260;2022-09-09T15:26:16;3.00;;;2.70;;
1779;SDS011;10019;46.670;14.260;2022-09-09T15:28:48;4.50;;;3.20;;
1779;SDS011;10019;46.670;14.260;2022-09-09T15:31:21;4.10;;;2.97;;
1779;SDS011;10019;46.670;14.260;2022-09-09T15:33:55;4.80;;;2.70;;
1779;SDS011;10019;46.670;14.260;2022-09-09T15:36:31;2.87;;;2.67;;
1779;SDS011;10019;46.670;14.260;2022-09-09T15:39:05;3.20;;;2.93;;
1779;SDS011;10019;46.670;14.260;2022-09-09T15:41:39;2.87;;;2.67;;
1779;SDS011;10019;46.670;14.260;2022-09-09T15:44:11;4.43;;;3.17;;
1779;SDS011;10019;46.670;14.260;2022-09-09T15:46:43;3.57;;;3.27;;
1779;SDS011;10019;46.670;14.260;2022-09-09T15:49:16;4.53;;;3.23;;
1779;SDS011;10019;46.670;14.260;2022-09-09T15:51:50;3.20;;;2.90;;